sensor_id;sensor_type;location;lat;lon;timestamp;P1;durP1;ratioP1;P2;durP2;ratioP2
30036;SDS011;36325;51.512;-0.382;2022-12-07T00:02:04;38.25;;;12.07;;
30036;SDS011;36325;51.512;-0.382;2022-12-07T00:04:31;42.35;;;11.68;;
30036;SDS011;36325;51.512;-0.382;2022-12-07T00:06:58;34.60;;;11.82;;
30036;SDS011;36325;51.512;-0.382;2022-12-07T00:09:25;25.13;;;11.10;;
30036;SDS011;36325;51.512;-0.382;2022-12-07T00:11:53;31.13;;;10.85;;
30036;SDS011;36325;51.512;-0.382;2022-12-07T00:14:20;29.88;;;11.48;;
30036;SDS011;36325;51.512;-0.382;2022-12-07T00:16:48;29.42;;;10.38;;
30036;SDS011;36325;51.512;-0.382;2022-12-07T00:19:19;31.20;;;11.38;;
30036;SDS011;36325;51.512;-0.382;2022-12-07T00:21:46;36.83;;;10.60;;
30036;SDS011;36325;51.512;-0.382;2022-12-07T00:24:13;27.73;;;10.15;;
30036;SDS011;36325;51.512;-0.382;2022-12-07T00:26:41;23.30;;;9.32;;
30036;SDS011;36325;51.512;-0.382;2022-12-07T00:29:19;31.50;;;9.98;;
30036;SDS011;36325;51.512;-0.382;2022-12-07T00:31:48;26.60;;;9.20;;
30036;SDS011;36325;51.512;-0.382;2022-12-07T00:34:18;25.23;;;9.00;;
30036;SDS011;36325;51.512;-0.382;2022-12-07T00:36:47;30.35;;;9.93;;
30036;SDS011;36325;51.512;-0.382;2022-12-07T00:39:15;24.02;;;9.35;;
30036;SDS011;36325;51.512;-0.382;2022-12-07T00:41:43;31.10;;;10.75;;
30036;SDS011;36325;51.512;-0.382;2022-12-07T00:44:10;27.70;;;9.80;;
30036;SDS011;36325;51.512;-0.382;2022-12-07T00:46:38;24.33;;;8.80;;
30036;SDS011;36325;51.512;-0.382;2022-12-07T00:49:06;25.20;;;9.85;;
30036;SDS011;36325;51.512;-0.382;2022-12-07T00:51:34;20.02;;;8.20;;
30036;SDS011;36325;51.512;-0.382;2022-12-07T00:54:02;37.75;;;9.48;;
30036;SDS011;36325;51.512;-0.382;2022-12-07T00:56:29;29.75;;;9.48;;
30036;SDS011;36325;51.512;-0.382;2022-12-07T00:58:58;31.98;;;10.30;;
30036;SDS011;36325;51.512;-0.382;2022-12-07T01:01:28;32.55;;;11.15;;
30036;SDS011;36325;51.512;-0.382;2022-12-07T01:03:56;35.75;;;11.88;;
30036;SDS011;36325;51.512;-0.382;2022-12-07T01:06:24;35.40;;;13.02;;
30036;SDS011;36325;51.512;-0.382;2022-12-07T01:08:52;38.53;;;12.98;;
30036;SDS011;36325;51.512;-0.382;2022-12-07T01:11:21;39.70;;;13.23;;
30036;SDS011;36325;51.512;-0.382;2022-12-07T01:13:51;35.92;;;11.98;;
30036;SDS011;36325;51.512;-0.382;2022-12-07T01:16:19;29.02;;;9.90;;
30036;SDS011;36325;51.512;-0.382;2022-12-07T01:18:51;29.55;;;9.35;;
30036;SDS011;36325;51.512;-0.382;2022-12-07T01:21:21;29.60;;;10.25;;
30036;SDS011;36325;51.512;-0.382;2022-12-07T01:23:57;32.47;;;13.00;;
30036;SDS011;36325;51.512;-0.382;2022-12-07T01:26:25;46.03;;;14.48;;
30036;SDS011;36325;51.512;-0.382;2022-12-07T01:28:53;31.27;;;12.95;;
30036;SDS011;36325;51.512;-0.382;2022-12-07T01:31:22;33.30;;;10.52;;
30036;SDS011;36325;51.512;-0.382;2022-12-07T01:33:52;39.13;;;13.38;;
30036;SDS011;36325;51.512;-0.382;2022-12-07T01:36:21;41.67;;;12.40;;
30036;SDS011;36325;51.512;-0.382;2022-12-07T01:38:56;37.60;;;12.93;;
30036;SDS011;36325;51.512;-0.382;2022-12-07T01:41:26;32.13;;;12.32;;
30036;SDS011;36325;51.512;-0.382;2022-12-07T01:44:10;34.70;;;12.10;;
30036;SDS011;36325;51.512;-0.382;2022-12-07T01:49:41;28.23;;;11.48;;
30036;SDS011;36325;51.512;-0.382;2022-12-07T01:54:48;23.70;;;8.90;;
30036;SDS011;36325;51.512;-0.382;2022-12-07T01:57:19;25.10;;;9.40;;
30036;SDS011;36325;51.512;-0.382;2022-12-07T01:59:48;22.20;;;8.93;;
30036;SDS011;36325;51.512;-0.382;2022-12-07T02:02:23;34.42;;;9.50;;
30036;SDS011;36325;51.512;-0.382;2022-12-07T02:04:59;27.30;;;8.15;;
30036;SDS011;36325;51.512;-0.382;2022-12-07T02:07:28;34.92;;;10.65;;
30036;SDS011;36325;51.512;-0.382;2022-12-07T02:09:57;26.67;;;10.00;;
30036;SDS011;36325;51.512;-0.382;2022-12-07T02:12:38;23.30;;;9.48;;
30036;SDS011;36325;51.512;-0.382;2022-12-07T02:15:05;28.65;;;8.32;;
30036;SDS011;36325;51.512;-0.382;2022-12-07T02:20:29;26.95;;;9.30;;
30036;SDS011;36325;51.512;-0.382;2022-12-07T02:28:34;26.52;;;9.32;;
30036;SDS011;36325;51.512;-0.382;2022-12-07T02:31:14;23.67;;;10.40;;
30036;SDS011;36325;51.512;-0.382;2022-12-07T02:33:48;24.38;;;10.73;;
30036;SDS011;36325;51.512;-0.382;2022-12-07T02:39:07;28.58;;;9.70;;
30036;SDS011;36325;51.512;-0.382;2022-12-07T02:41:44;26.75;;;10.73;;
30036;SDS011;36325;51.512;-0.382;2022-12-07T02:44:18;37.85;;;11.18;;
30036;SDS011;36325;51.512;-0.382;2022-12-07T02:46:58;29.95;;;11.43;;
30036;SDS011;36325;51.512;-0.382;2022-12-07T02:49:37;34.83;;;12.15;;
30036;SDS011;36325;51.512;-0.382;2022-12-07T02:52:06;33.60;;;10.63;;
30036;SDS011;36325;51.512;-0.382;2022-12-07T02:54:38;27.38;;;11.73;;
30036;SDS011;36325;51.512;-0.382;2022-12-07T03:00:28;29.27;;;10.32;;
30036;SDS011;36325;51.512;-0.382;2022-12-07T03:03:11;28.33;;;10.50;;
30036;SDS011;36325;51.512;-0.382;2022-12-07T03:08:37;26.55;;;11.40;;
30036;SDS011;36325;51.512;-0.382;2022-12-07T03:11:21;26.02;;;9.70;;
30036;SDS011;36325;51.512;-0.382;2022-12-07T03:14:02;22.13;;;10.23;;
30036;SDS011;36325;51.512;-0.382;2022-12-07T03:17:14;25.80;;;9.05;;
30036;SDS011;36325;51.512;-0.382;2022-12-07T03:19:45;26.38;;;10.32;;
30036;SDS011;36325;51.512;-0.382;2022-12-07T03:22:16;26.70;;;10.02;;
30036;SDS011;36325;51.512;-0.382;2022-12-07T03:24:47;25.20;;;9.70;;
30036;SDS011;36325;51.512;-0.382;2022-12-07T03:27:44;19.10;;;9.48;;
30036;SDS011;36325;51.512;-0.382;2022-12-07T03:30:12;25.05;;;9.32;;
30036;SDS011;36325;51.512;-0.382;2022-12-07T03:32:45;22.30;;;10.27;;
30036;SDS011;36325;51.512;-0.382;2022-12-07T03:35:25;21.20;;;9.48;;
30036;SDS011;36325;51.512;-0.382;2022-12-07T03:37:59;28.33;;;10.10;;
30036;SDS011;36325;51.512;-0.382;2022-12-07T03:40:42;28.90;;;10.00;;
30036;SDS011;36325;51.512;-0.382;2022-12-07T03:43:13;21.25;;;8.27;;
30036;SDS011;36325;51.512;-0.382;2022-12-07T03:45:42;22.77;;;9.27;;
30036;SDS011;36325;51.512;-0.382;2022-12-07T03:48:22;26.08;;;10.75;;
30036;SDS011;36325;51.512;-0.382;2022-12-07T03:51:06;21.48;;;8.70;;
30036;SDS011;36325;51.512;-0.382;2022-12-07T03:53:43;25.20;;;10.52;;
30036;SDS011;36325;51.512;-0.382;2022-12-07T03:56:18;26.90;;;9.88;;
30036;SDS011;36325;51.512;-0.382;2022-12-07T03:58:47;21.10;;;9.48;;
30036;SDS011;36325;51.512;-0.382;2022-12-07T04:01:15;32.88;;;10.23;;
30036;SDS011;36325;51.512;-0.382;2022-12-07T04:03:44;25.98;;;9.50;;
30036;SDS011;36325;51.512;-0.382;2022-12-07T04:06:12;25.63;;;10.43;;
30036;SDS011;36325;51.512;-0.382;2022-12-07T04:08:40;31.17;;;9.60;;
30036;SDS011;36325;51.512;-0.382;2022-12-07T04:11:07;20.58;;;9.40;;
30036;SDS011;36325;51.512;-0.382;2022-12-07T04:13:34;25.88;;;10.68;;
30036;SDS011;36325;51.512;-0.382;2022-12-07T04:16:22;28.98;;;9.95;;
30036;SDS011;36325;51.512;-0.382;2022-12-07T04:18:49;21.15;;;9.73;;
30036;SDS011;36325;51.512;-0.382;2022-12-07T04:21:17;26.10;;;9.90;;
30036;SDS011;36325;51.512;-0.382;2022-12-07T04:23:44;23.63;;;10.05;;
30036;SDS011;36325;51.512;-0.382;2022-12-07T04:26:11;28.20;;;9.80;;
30036;SDS011;36325;51.512;-0.382;2022-12-07T04:28:39;26.33;;;8.32;;
30036;SDS011;36325;51.512;-0.382;2022-12-07T04:31:06;22.60;;;9.43;;
30036;SDS011;36325;51.512;-0.382;2022-12-07T04:33:35;21.42;;;8.90;;
30036;SDS011;36325;51.512;-0.382;2022-12-07T04:36:03;32.10;;;9.65;;
30036;SDS011;36325;51.512;-0.382;2022-12-07T04:38:30;30.52;;;11.30;;
30036;SDS011;36325;51.512;-0.382;2022-12-07T04:40:58;24.98;;;9.75;;
30036;SDS011;36325;51.512;-0.382;2022-12-07T04:43:25;40.15;;;10.25;;
30036;SDS011;36325;51.512;-0.382;2022-12-07T04:45:52;31.92;;;10.38;;
30036;SDS011;36325;51.512;-0.382;2022-12-07T04:48:20;21.58;;;9.50;;
30036;SDS011;36325;51.512;-0.382;2022-12-07T04:50:47;20.23;;;8.55;;
30036;SDS011;36325;51.512;-0.382;2022-12-07T04:53:16;22.38;;;8.68;;
30036;SDS011;36325;51.512;-0.382;2022-12-07T04:55:44;21.13;;;8.23;;
30036;SDS011;36325;51.512;-0.382;2022-12-07T04:58:12;37.30;;;10.70;;
30036;SDS011;36325;51.512;-0.382;2022-12-07T05:00:40;29.45;;;11.00;;
30036;SDS011;36325;51.512;-0.382;2022-12-07T05:03:07;20.98;;;8.80;;
30036;SDS011;36325;51.512;-0.382;2022-12-07T05:05:36;23.52;;;8.98;;
30036;SDS011;36325;51.512;-0.382;2022-12-07T05:08:07;30.33;;;9.00;;
30036;SDS011;36325;51.512;-0.382;2022-12-07T05:10:34;26.60;;;9.75;;
30036;SDS011;36325;51.512;-0.382;2022-12-07T05:13:02;29.48;;;10.52;;
30036;SDS011;36325;51.512;-0.382;2022-12-07T05:15:29;24.45;;;9.27;;
30036;SDS011;36325;51.512;-0.382;2022-12-07T05:17:56;32.00;;;8.82;;
30036;SDS011;36325;51.512;-0.382;2022-12-07T05:20:23;22.67;;;8.75;;
30036;SDS011;36325;51.512;-0.382;2022-12-07T05:22:51;26.25;;;9.10;;
30036;SDS011;36325;51.512;-0.382;2022-12-07T05:25:18;30.15;;;8.18;;
30036;SDS011;36325;51.512;-0.382;2022-12-07T05:27:45;25.95;;;8.45;;
30036;SDS011;36325;51.512;-0.382;2022-12-07T05:30:13;26.48;;;8.85;;
30036;SDS011;36325;51.512;-0.382;2022-12-07T05:32:41;21.10;;;7.78;;
30036;SDS011;36325;51.512;-0.382;2022-12-07T05:35:09;18.95;;;7.88;;
30036;SDS011;36325;51.512;-0.382;2022-12-07T05:37:36;19.40;;;7.40;;
30036;SDS011;36325;51.512;-0.382;2022-12-07T05:40:04;17.98;;;8.05;;
30036;SDS011;36325;51.512;-0.382;2022-12-07T05:42:33;24.95;;;10.10;;
30036;SDS011;36325;51.512;-0.382;2022-12-07T05:45:00;24.48;;;9.70;;
30036;SDS011;36325;51.512;-0.382;2022-12-07T05:47:28;30.42;;;9.27;;
30036;SDS011;36325;51.512;-0.382;2022-12-07T05:49:56;22.42;;;9.35;;
30036;SDS011;36325;51.512;-0.382;2022-12-07T05:52:23;26.95;;;9.50;;
30036;SDS011;36325;51.512;-0.382;2022-12-07T05:54:50;19.55;;;8.93;;
30036;SDS011;36325;51.512;-0.382;2022-12-07T05:57:18;24.60;;;9.80;;
30036;SDS011;36325;51.512;-0.382;2022-12-07T05:59:45;21.60;;;8.82;;
30036;SDS011;36325;51.512;-0.382;2022-12-07T06:02:14;18.80;;;8.85;;
30036;SDS011;36325;51.512;-0.382;2022-12-07T06:04:43;24.90;;;8.65;;
30036;SDS011;36325;51.512;-0.382;2022-12-07T06:07:13;29.10;;;9.75;;
30036;SDS011;36325;51.512;-0.382;2022-12-07T06:09:42;25.08;;;9.30;;
30036;SDS011;36325;51.512;-0.382;2022-12-07T06:12:10;31.98;;;9.30;;
30036;SDS011;36325;51.512;-0.382;2022-12-07T06:14:57;20.80;;;9.73;;
30036;SDS011;36325;51.512;-0.382;2022-12-07T06:17:25;28.50;;;8.82;;
30036;SDS011;36325;51.512;-0.382;2022-12-07T06:19:53;20.50;;;9.88;;
30036;SDS011;36325;51.512;-0.382;2022-12-07T06:22:20;25.38;;;9.80;;
30036;SDS011;36325;51.512;-0.382;2022-12-07T06:24:48;24.58;;;10.18;;
30036;SDS011;36325;51.512;-0.382;2022-12-07T06:27:16;26.92;;;9.07;;
30036;SDS011;36325;51.512;-0.382;2022-12-07T06:29:44;25.00;;;9.35;;
30036;SDS011;36325;51.512;-0.382;2022-12-07T06:32:11;30.83;;;11.88;;
30036;SDS011;36325;51.512;-0.382;2022-12-07T06:34:38;18.70;;;9.98;;
30036;SDS011;36325;51.512;-0.382;2022-12-07T06:37:06;21.40;;;9.65;;
30036;SDS011;36325;51.512;-0.382;2022-12-07T06:39:33;23.40;;;9.95;;
30036;SDS011;36325;51.512;-0.382;2022-12-07T06:42:01;29.52;;;10.52;;
30036;SDS011;36325;51.512;-0.382;2022-12-07T06:44:28;24.45;;;10.40;;
30036;SDS011;36325;51.512;-0.382;2022-12-07T06:46:55;32.55;;;10.40;;
30036;SDS011;36325;51.512;-0.382;2022-12-07T06:49:43;20.20;;;9.18;;
30036;SDS011;36325;51.512;-0.382;2022-12-07T06:52:10;33.10;;;10.30;;
30036;SDS011;36325;51.512;-0.382;2022-12-07T06:54:38;23.50;;;10.30;;
30036;SDS011;36325;51.512;-0.382;2022-12-07T06:57:05;23.88;;;10.75;;
30036;SDS011;36325;51.512;-0.382;2022-12-07T06:59:32;27.27;;;10.85;;
30036;SDS011;36325;51.512;-0.382;2022-12-07T07:02:00;29.77;;;10.43;;
30036;SDS011;36325;51.512;-0.382;2022-12-07T07:04:27;30.30;;;10.82;;
30036;SDS011;36325;51.512;-0.382;2022-12-07T07:06:54;35.65;;;13.07;;
30036;SDS011;36325;51.512;-0.382;2022-12-07T07:09:25;28.52;;;12.35;;
30036;SDS011;36325;51.512;-0.382;2022-12-07T07:11:52;28.38;;;11.55;;
30036;SDS011;36325;51.512;-0.382;2022-12-07T07:14:20;32.80;;;13.70;;
30036;SDS011;36325;51.512;-0.382;2022-12-07T07:16:47;31.83;;;12.43;;
30036;SDS011;36325;51.512;-0.382;2022-12-07T07:19:15;28.13;;;12.60;;
30036;SDS011;36325;51.512;-0.382;2022-12-07T07:21:42;29.05;;;13.05;;
30036;SDS011;36325;51.512;-0.382;2022-12-07T07:24:10;36.13;;;15.13;;
30036;SDS011;36325;51.512;-0.382;2022-12-07T07:26:38;28.05;;;12.32;;
30036;SDS011;36325;51.512;-0.382;2022-12-07T07:29:06;27.50;;;11.13;;
30036;SDS011;36325;51.512;-0.382;2022-12-07T07:31:34;22.98;;;11.35;;
30036;SDS011;36325;51.512;-0.382;2022-12-07T07:34:02;33.85;;;12.60;;
30036;SDS011;36325;51.512;-0.382;2022-12-07T07:36:29;41.28;;;13.68;;
30036;SDS011;36325;51.512;-0.382;2022-12-07T07:38:57;32.03;;;13.35;;
30036;SDS011;36325;51.512;-0.382;2022-12-07T07:41:24;35.75;;;13.40;;
30036;SDS011;36325;51.512;-0.382;2022-12-07T07:43:51;30.02;;;12.73;;
30036;SDS011;36325;51.512;-0.382;2022-12-07T07:46:22;36.67;;;13.33;;
30036;SDS011;36325;51.512;-0.382;2022-12-07T07:48:50;28.67;;;13.23;;
30036;SDS011;36325;51.512;-0.382;2022-12-07T07:51:18;35.20;;;13.88;;
30036;SDS011;36325;51.512;-0.382;2022-12-07T07:53:45;42.50;;;15.75;;
30036;SDS011;36325;51.512;-0.382;2022-12-07T07:56:13;49.05;;;18.77;;
30036;SDS011;36325;51.512;-0.382;2022-12-07T07:58:40;40.35;;;14.82;;
30036;SDS011;36325;51.512;-0.382;2022-12-07T08:01:07;52.88;;;18.95;;
30036;SDS011;36325;51.512;-0.382;2022-12-07T08:03:35;47.22;;;17.77;;
30036;SDS011;36325;51.512;-0.382;2022-12-07T08:06:03;40.10;;;17.35;;
30036;SDS011;36325;51.512;-0.382;2022-12-07T08:08:31;45.22;;;18.02;;
30036;SDS011;36325;51.512;-0.382;2022-12-07T08:10:58;43.05;;;17.88;;
30036;SDS011;36325;51.512;-0.382;2022-12-07T08:13:28;39.83;;;16.30;;
30036;SDS011;36325;51.512;-0.382;2022-12-07T08:15:58;43.05;;;15.73;;
30036;SDS011;36325;51.512;-0.382;2022-12-07T08:18:29;48.08;;;16.95;;
30036;SDS011;36325;51.512;-0.382;2022-12-07T08:20:59;34.65;;;15.50;;
30036;SDS011;36325;51.512;-0.382;2022-12-07T08:23:30;41.70;;;15.70;;
30036;SDS011;36325;51.512;-0.382;2022-12-07T08:26:06;40.15;;;15.80;;
30036;SDS011;36325;51.512;-0.382;2022-12-07T08:28:36;44.35;;;16.20;;
30036;SDS011;36325;51.512;-0.382;2022-12-07T08:31:08;48.53;;;15.77;;
30036;SDS011;36325;51.512;-0.382;2022-12-07T08:33:38;43.80;;;15.00;;
30036;SDS011;36325;51.512;-0.382;2022-12-07T08:36:09;33.78;;;13.73;;
30036;SDS011;36325;51.512;-0.382;2022-12-07T08:38:38;33.97;;;12.85;;
30036;SDS011;36325;51.512;-0.382;2022-12-07T08:41:13;42.30;;;14.55;;
30036;SDS011;36325;51.512;-0.382;2022-12-07T08:43:41;36.50;;;15.40;;
30036;SDS011;36325;51.512;-0.382;2022-12-07T08:48:56;35.30;;;15.30;;
30036;SDS011;36325;51.512;-0.382;2022-12-07T08:51:34;44.10;;;14.88;;
30036;SDS011;36325;51.512;-0.382;2022-12-07T08:54:04;43.72;;;15.30;;
30036;SDS011;36325;51.512;-0.382;2022-12-07T08:56:34;38.78;;;15.15;;
30036;SDS011;36325;51.512;-0.382;2022-12-07T08:59:02;36.47;;;15.80;;
30036;SDS011;36325;51.512;-0.382;2022-12-07T09:01:31;36.92;;;15.13;;
30036;SDS011;36325;51.512;-0.382;2022-12-07T09:03:59;32.72;;;14.35;;
30036;SDS011;36325;51.512;-0.382;2022-12-07T09:06:27;44.17;;;15.77;;
30036;SDS011;36325;51.512;-0.382;2022-12-07T09:08:56;41.10;;;16.58;;
30036;SDS011;36325;51.512;-0.382;2022-12-07T09:11:26;44.95;;;15.48;;
30036;SDS011;36325;51.512;-0.382;2022-12-07T09:13:54;44.95;;;14.40;;
30036;SDS011;36325;51.512;-0.382;2022-12-07T09:16:22;34.97;;;15.25;;
30036;SDS011;36325;51.512;-0.382;2022-12-07T09:18:49;31.55;;;14.25;;
30036;SDS011;36325;51.512;-0.382;2022-12-07T09:21:17;34.90;;;14.30;;
30036;SDS011;36325;51.512;-0.382;2022-12-07T09:23:44;36.53;;;13.48;;
30036;SDS011;36325;51.512;-0.382;2022-12-07T09:26:11;37.05;;;13.13;;
30036;SDS011;36325;51.512;-0.382;2022-12-07T09:28:39;29.38;;;12.65;;
30036;SDS011;36325;51.512;-0.382;2022-12-07T09:31:08;26.75;;;11.65;;
30036;SDS011;36325;51.512;-0.382;2022-12-07T09:33:58;25.83;;;11.00;;
30036;SDS011;36325;51.512;-0.382;2022-12-07T09:36:28;30.50;;;11.60;;
30036;SDS011;36325;51.512;-0.382;2022-12-07T09:38:55;27.25;;;11.25;;
30036;SDS011;36325;51.512;-0.382;2022-12-07T09:41:25;29.58;;;10.57;;
30036;SDS011;36325;51.512;-0.382;2022-12-07T09:43:56;22.77;;;10.30;;
30036;SDS011;36325;51.512;-0.382;2022-12-07T09:46:39;21.20;;;10.93;;
30036;SDS011;36325;51.512;-0.382;2022-12-07T09:49:16;28.58;;;11.27;;
30036;SDS011;36325;51.512;-0.382;2022-12-07T09:52:03;22.85;;;9.55;;
30036;SDS011;36325;51.512;-0.382;2022-12-07T09:54:31;22.33;;;10.02;;
30036;SDS011;36325;51.512;-0.382;2022-12-07T09:57:03;17.60;;;7.57;;
30036;SDS011;36325;51.512;-0.382;2022-12-07T09:59:30;23.05;;;9.65;;
30036;SDS011;36325;51.512;-0.382;2022-12-07T10:02:19;22.27;;;10.23;;
30036;SDS011;36325;51.512;-0.382;2022-12-07T10:04:51;23.60;;;8.48;;
30036;SDS011;36325;51.512;-0.382;2022-12-07T10:07:19;29.27;;;9.93;;
30036;SDS011;36325;51.512;-0.382;2022-12-07T10:09:46;21.55;;;9.70;;
30036;SDS011;36325;51.512;-0.382;2022-12-07T10:12:14;23.10;;;8.88;;
30036;SDS011;36325;51.512;-0.382;2022-12-07T10:14:55;22.75;;;9.25;;
30036;SDS011;36325;51.512;-0.382;2022-12-07T10:17:41;23.13;;;8.95;;
30036;SDS011;36325;51.512;-0.382;2022-12-07T10:22:57;18.27;;;8.32;;
30036;SDS011;36325;51.512;-0.382;2022-12-07T10:25:26;20.48;;;8.65;;
30036;SDS011;36325;51.512;-0.382;2022-12-07T10:33:37;16.38;;;7.60;;
30036;SDS011;36325;51.512;-0.382;2022-12-07T10:36:18;19.52;;;8.98;;
30036;SDS011;36325;51.512;-0.382;2022-12-07T10:39:12;25.27;;;10.43;;
30036;SDS011;36325;51.512;-0.382;2022-12-07T10:44:25;17.60;;;8.60;;
30036;SDS011;36325;51.512;-0.382;2022-12-07T10:47:07;19.60;;;9.05;;
30036;SDS011;36325;51.512;-0.382;2022-12-07T10:52:51;19.58;;;8.48;;
30036;SDS011;36325;51.512;-0.382;2022-12-07T10:55:41;16.70;;;7.70;;
30036;SDS011;36325;51.512;-0.382;2022-12-07T10:58:31;12.35;;;6.05;;
30036;SDS011;36325;51.512;-0.382;2022-12-07T11:13:13;21.60;;;9.32;;
30036;SDS011;36325;51.512;-0.382;2022-12-07T11:21:58;13.75;;;6.35;;
30036;SDS011;36325;51.512;-0.382;2022-12-07T11:27:38;12.65;;;6.78;;
30036;SDS011;36325;51.512;-0.382;2022-12-07T11:30:20;14.80;;;6.85;;
30036;SDS011;36325;51.512;-0.382;2022-12-07T11:33:09;12.35;;;6.53;;
30036;SDS011;36325;51.512;-0.382;2022-12-07T11:41:09;13.63;;;5.72;;
30036;SDS011;36325;51.512;-0.382;2022-12-07T11:43:50;9.35;;;5.00;;
30036;SDS011;36325;51.512;-0.382;2022-12-07T11:46:19;15.75;;;5.20;;
30036;SDS011;36325;51.512;-0.382;2022-12-07T11:48:54;10.13;;;5.10;;
30036;SDS011;36325;51.512;-0.382;2022-12-07T11:51:31;10.95;;;5.30;;
30036;SDS011;36325;51.512;-0.382;2022-12-07T11:54:17;6.97;;;4.93;;
30036;SDS011;36325;51.512;-0.382;2022-12-07T11:56:50;13.50;;;4.78;;
30036;SDS011;36325;51.512;-0.382;2022-12-07T11:59:27;12.80;;;5.22;;
30036;SDS011;36325;51.512;-0.382;2022-12-07T12:02:15;12.48;;;5.07;;
30036;SDS011;36325;51.512;-0.382;2022-12-07T12:05:17;11.15;;;4.80;;
30036;SDS011;36325;51.512;-0.382;2022-12-07T12:07:46;11.57;;;5.40;;
30036;SDS011;36325;51.512;-0.382;2022-12-07T12:10:47;14.70;;;5.80;;
30036;SDS011;36325;51.512;-0.382;2022-12-07T12:22:52;9.60;;;5.40;;
30036;SDS011;36325;51.512;-0.382;2022-12-07T12:25:45;9.27;;;5.13;;
30036;SDS011;36325;51.512;-0.382;2022-12-07T12:33:38;10.82;;;5.47;;
30036;SDS011;36325;51.512;-0.382;2022-12-07T12:46:47;14.52;;;5.05;;
30036;SDS011;36325;51.512;-0.382;2022-12-07T12:51:50;10.55;;;4.82;;
30036;SDS011;36325;51.512;-0.382;2022-12-07T12:54:24;8.65;;;4.80;;
30036;SDS011;36325;51.512;-0.382;2022-12-07T13:02:31;7.00;;;3.92;;
30036;SDS011;36325;51.512;-0.382;2022-12-07T13:23:29;9.27;;;4.05;;
30036;SDS011;36325;51.512;-0.382;2022-12-07T13:29:15;9.43;;;3.70;;
30036;SDS011;36325;51.512;-0.382;2022-12-07T13:37:08;9.50;;;3.83;;
30036;SDS011;36325;51.512;-0.382;2022-12-07T13:39:45;9.13;;;3.53;;
30036;SDS011;36325;51.512;-0.382;2022-12-07T13:44:54;9.98;;;3.25;;
30036;SDS011;36325;51.512;-0.382;2022-12-07T13:47:30;6.72;;;3.28;;
30036;SDS011;36325;51.512;-0.382;2022-12-07T13:50:24;9.98;;;3.47;;
30036;SDS011;36325;51.512;-0.382;2022-12-07T13:53:00;7.70;;;3.47;;
30036;SDS011;36325;51.512;-0.382;2022-12-07T13:55:28;12.23;;;3.47;;
30036;SDS011;36325;51.512;-0.382;2022-12-07T13:57:57;9.15;;;3.45;;
30036;SDS011;36325;51.512;-0.382;2022-12-07T14:00:25;8.48;;;4.32;;
30036;SDS011;36325;51.512;-0.382;2022-12-07T14:05:31;10.60;;;4.45;;
30036;SDS011;36325;51.512;-0.382;2022-12-07T14:08:04;7.03;;;3.78;;
30036;SDS011;36325;51.512;-0.382;2022-12-07T14:10:39;11.70;;;4.20;;
30036;SDS011;36325;51.512;-0.382;2022-12-07T14:16:03;8.20;;;3.70;;
30036;SDS011;36325;51.512;-0.382;2022-12-07T14:18:37;7.45;;;3.75;;
30036;SDS011;36325;51.512;-0.382;2022-12-07T14:21:13;11.27;;;4.32;;
30036;SDS011;36325;51.512;-0.382;2022-12-07T14:26:38;9.77;;;4.20;;
30036;SDS011;36325;51.512;-0.382;2022-12-07T14:31:57;8.15;;;5.15;;
30036;SDS011;36325;51.512;-0.382;2022-12-07T14:34:31;10.77;;;4.85;;
30036;SDS011;36325;51.512;-0.382;2022-12-07T14:36:58;11.23;;;4.82;;
30036;SDS011;36325;51.512;-0.382;2022-12-07T14:39:25;15.45;;;5.40;;
30036;SDS011;36325;51.512;-0.382;2022-12-07T14:41:53;10.65;;;4.47;;
30036;SDS011;36325;51.512;-0.382;2022-12-07T14:44:23;10.45;;;4.97;;
30036;SDS011;36325;51.512;-0.382;2022-12-07T14:46:57;10.48;;;4.80;;
30036;SDS011;36325;51.512;-0.382;2022-12-07T14:49:44;8.20;;;4.55;;
30036;SDS011;36325;51.512;-0.382;2022-12-07T14:52:17;9.52;;;4.78;;
30036;SDS011;36325;51.512;-0.382;2022-12-07T14:57:56;10.23;;;4.00;;
30036;SDS011;36325;51.512;-0.382;2022-12-07T15:00:26;12.23;;;4.80;;
30036;SDS011;36325;51.512;-0.382;2022-12-07T15:02:55;8.63;;;4.25;;
30036;SDS011;36325;51.512;-0.382;2022-12-07T15:05:23;11.90;;;4.40;;
30036;SDS011;36325;51.512;-0.382;2022-12-07T15:07:50;11.15;;;4.55;;
30036;SDS011;36325;51.512;-0.382;2022-12-07T15:10:19;12.07;;;4.65;;
30036;SDS011;36325;51.512;-0.382;2022-12-07T15:12:50;10.18;;;4.63;;
30036;SDS011;36325;51.512;-0.382;2022-12-07T15:15:17;12.45;;;4.03;;
30036;SDS011;36325;51.512;-0.382;2022-12-07T15:17:46;11.30;;;4.25;;
30036;SDS011;36325;51.512;-0.382;2022-12-07T15:20:14;8.15;;;3.78;;
30036;SDS011;36325;51.512;-0.382;2022-12-07T15:22:43;21.52;;;5.28;;
30036;SDS011;36325;51.512;-0.382;2022-12-07T15:25:14;16.27;;;5.68;;
30036;SDS011;36325;51.512;-0.382;2022-12-07T15:27:41;18.37;;;4.70;;
30036;SDS011;36325;51.512;-0.382;2022-12-07T15:30:08;9.15;;;4.05;;
30036;SDS011;36325;51.512;-0.382;2022-12-07T15:32:36;18.35;;;4.68;;
30036;SDS011;36325;51.512;-0.382;2022-12-07T15:35:04;16.40;;;3.55;;
30036;SDS011;36325;51.512;-0.382;2022-12-07T15:37:32;9.70;;;3.85;;
30036;SDS011;36325;51.512;-0.382;2022-12-07T15:39:59;12.00;;;4.00;;
30036;SDS011;36325;51.512;-0.382;2022-12-07T15:42:32;9.23;;;3.97;;
30036;SDS011;36325;51.512;-0.382;2022-12-07T15:44:59;18.27;;;4.05;;
30036;SDS011;36325;51.512;-0.382;2022-12-07T15:47:37;11.77;;;4.25;;
30036;SDS011;36325;51.512;-0.382;2022-12-07T15:50:26;11.75;;;3.95;;
30036;SDS011;36325;51.512;-0.382;2022-12-07T15:52:54;14.18;;;4.82;;
30036;SDS011;36325;51.512;-0.382;2022-12-07T15:55:22;14.75;;;5.15;;
30036;SDS011;36325;51.512;-0.382;2022-12-07T15:57:49;14.80;;;4.65;;
30036;SDS011;36325;51.512;-0.382;2022-12-07T16:00:17;16.85;;;4.60;;
30036;SDS011;36325;51.512;-0.382;2022-12-07T16:02:46;11.35;;;4.38;;
30036;SDS011;36325;51.512;-0.382;2022-12-07T16:05:13;12.82;;;4.72;;
30036;SDS011;36325;51.512;-0.382;2022-12-07T16:07:40;13.60;;;5.43;;
30036;SDS011;36325;51.512;-0.382;2022-12-07T16:10:10;15.90;;;5.20;;
30036;SDS011;36325;51.512;-0.382;2022-12-07T16:12:37;20.67;;;5.05;;
30036;SDS011;36325;51.512;-0.382;2022-12-07T16:15:04;17.50;;;5.55;;
30036;SDS011;36325;51.512;-0.382;2022-12-07T16:17:32;17.10;;;6.07;;
30036;SDS011;36325;51.512;-0.382;2022-12-07T16:19:59;21.45;;;5.82;;
30036;SDS011;36325;51.512;-0.382;2022-12-07T16:22:27;16.50;;;6.70;;
30036;SDS011;36325;51.512;-0.382;2022-12-07T16:24:54;15.77;;;6.00;;
30036;SDS011;36325;51.512;-0.382;2022-12-07T16:27:22;17.80;;;6.63;;
30036;SDS011;36325;51.512;-0.382;2022-12-07T16:29:50;15.20;;;5.65;;
30036;SDS011;36325;51.512;-0.382;2022-12-07T16:32:17;19.52;;;5.90;;
30036;SDS011;36325;51.512;-0.382;2022-12-07T16:34:44;17.70;;;6.47;;
30036;SDS011;36325;51.512;-0.382;2022-12-07T16:37:11;16.65;;;6.38;;
30036;SDS011;36325;51.512;-0.382;2022-12-07T16:39:39;20.73;;;7.28;;
30036;SDS011;36325;51.512;-0.382;2022-12-07T16:42:07;21.63;;;7.63;;
30036;SDS011;36325;51.512;-0.382;2022-12-07T16:44:34;20.45;;;8.68;;
30036;SDS011;36325;51.512;-0.382;2022-12-07T16:47:01;24.13;;;8.88;;
30036;SDS011;36325;51.512;-0.382;2022-12-07T16:49:28;20.38;;;8.00;;
30036;SDS011;36325;51.512;-0.382;2022-12-07T16:51:56;18.70;;;8.07;;
30036;SDS011;36325;51.512;-0.382;2022-12-07T16:54:44;25.15;;;9.48;;
30036;SDS011;36325;51.512;-0.382;2022-12-07T16:57:11;23.20;;;8.90;;
30036;SDS011;36325;51.512;-0.382;2022-12-07T16:59:44;25.27;;;8.93;;
30036;SDS011;36325;51.512;-0.382;2022-12-07T17:02:11;21.83;;;8.65;;
30036;SDS011;36325;51.512;-0.382;2022-12-07T17:04:39;27.42;;;9.73;;
30036;SDS011;36325;51.512;-0.382;2022-12-07T17:07:08;26.98;;;9.93;;